sensor_id;sensor_type;location;lat;lon;timestamp;P1;durP1;ratioP1;P2;durP2;ratioP2
7605;SDS011;3844;53.360;9.738;2023-03-01T00:01:27;10.10;;;4.95;;
7605;SDS011;3844;53.360;9.738;2023-03-01T00:03:29;11.13;;;5.05;;
7605;SDS011;3844;53.360;9.738;2023-03-01T00:05:30;10.63;;;4.53;;
7605;SDS011;3844;53.360;9.738;2023-03-01T00:07:31;10.05;;;4.53;;
7605;SDS011;3844;53.360;9.738;2023-03-01T00:09:31;11.40;;;5.53;;
7605;SDS011;3844;53.360;9.738;2023-03-01T00:11:35;9.93;;;4.65;;
7605;SDS011;3844;53.360;9.738;2023-03-01T00:13:36;10.93;;;4.53;;
7605;SDS011;3844;53.360;9.738;2023-03-01T00:15:40;10.90;;;4.65;;
7605;SDS011;3844;53.360;9.738;2023-03-01T00:17:41;11.45;;;4.95;;
7605;SDS011;3844;53.360;9.738;2023-03-01T00:19:42;11.50;;;5.07;;
7605;SDS011;3844;53.360;9.738;2023-03-01T00:21:43;12.85;;;5.20;;
7605;SDS011;3844;53.360;9.738;2023-03-01T00:23:44;10.77;;;5.10;;
7605;SDS011;3844;53.360;9.738;2023-03-01T00:25:44;11.68;;;4.95;;
7605;SDS011;3844;53.360;9.738;2023-03-01T00:27:46;12.13;;;5.35;;
7605;SDS011;3844;53.360;9.738;2023-03-01T00:29:48;10.45;;;4.97;;
7605;SDS011;3844;53.360;9.738;2023-03-01T00:31:49;10.85;;;4.80;;
7605;SDS011;3844;53.360;9.738;2023-03-01T00:33:54;10.35;;;4.90;;
7605;SDS011;3844;53.360;9.738;2023-03-01T00:36:00;12.07;;;5.03;;
7605;SDS011;3844;53.360;9.738;2023-03-01T00:38:01;11.30;;;5.13;;
7605;SDS011;3844;53.360;9.738;2023-03-01T00:40:02;13.70;;;5.22;;
7605;SDS011;3844;53.360;9.738;2023-03-01T00:42:06;10.73;;;4.88;;
7605;SDS011;3844;53.360;9.738;2023-03-01T00:44:07;12.43;;;5.15;;
7605;SDS011;3844;53.360;9.738;2023-03-01T00:46:09;12.10;;;5.38;;
7605;SDS011;3844;53.360;9.738;2023-03-01T00:48:15;12.45;;;5.43;;
7605;SDS011;3844;53.360;9.738;2023-03-01T00:50:16;15.00;;;5.65;;
7605;SDS011;3844;53.360;9.738;2023-03-01T00:52:17;11.52;;;5.43;;
7605;SDS011;3844;53.360;9.738;2023-03-01T00:54:18;12.35;;;6.07;;
7605;SDS011;3844;53.360;9.738;2023-03-01T00:56:19;10.27;;;5.30;;
7605;SDS011;3844;53.360;9.738;2023-03-01T00:58:20;11.85;;;5.55;;
7605;SDS011;3844;53.360;9.738;2023-03-01T01:00:21;11.18;;;5.25;;
7605;SDS011;3844;53.360;9.738;2023-03-01T01:02:22;13.30;;;5.78;;
7605;SDS011;3844;53.360;9.738;2023-03-01T01:04:23;12.80;;;5.70;;
7605;SDS011;3844;53.360;9.738;2023-03-01T01:06:25;12.77;;;5.80;;
7605;SDS011;3844;53.360;9.738;2023-03-01T01:08:28;13.15;;;5.10;;
7605;SDS011;3844;53.360;9.738;2023-03-01T01:10:29;13.75;;;5.85;;
7605;SDS011;3844;53.360;9.738;2023-03-01T01:12:29;12.25;;;5.55;;
7605;SDS011;3844;53.360;9.738;2023-03-01T01:14:30;13.55;;;5.38;;
7605;SDS011;3844;53.360;9.738;2023-03-01T01:16:31;11.88;;;5.13;;
7605;SDS011;3844;53.360;9.738;2023-03-01T01:18:33;11.25;;;5.40;;
7605;SDS011;3844;53.360;9.738;2023-03-01T01:20:34;10.23;;;5.13;;
7605;SDS011;3844;53.360;9.738;2023-03-01T01:22:36;13.85;;;5.80;;
7605;SDS011;3844;53.360;9.738;2023-03-01T01:24:37;10.93;;;5.03;;
7605;SDS011;3844;53.360;9.738;2023-03-01T01:26:37;13.65;;;5.93;;
7605;SDS011;3844;53.360;9.738;2023-03-01T01:28:38;13.00;;;5.32;;
7605;SDS011;3844;53.360;9.738;2023-03-01T01:30:39;12.38;;;5.55;;
7605;SDS011;3844;53.360;9.738;2023-03-01T01:32:40;15.07;;;6.13;;
7605;SDS011;3844;53.360;9.738;2023-03-01T01:34:41;12.15;;;5.70;;
7605;SDS011;3844;53.360;9.738;2023-03-01T01:36:42;14.68;;;6.30;;
7605;SDS011;3844;53.360;9.738;2023-03-01T01:38:47;11.73;;;5.75;;
7605;SDS011;3844;53.360;9.738;2023-03-01T01:40:48;13.68;;;6.22;;
7605;SDS011;3844;53.360;9.738;2023-03-01T01:42:50;14.25;;;6.25;;
7605;SDS011;3844;53.360;9.738;2023-03-01T01:47:28;14.02;;;6.18;;
7605;SDS011;3844;53.360;9.738;2023-03-01T01:49:37;14.13;;;5.93;;
7605;SDS011;3844;53.360;9.738;2023-03-01T01:51:40;16.85;;;6.60;;
7605;SDS011;3844;53.360;9.738;2023-03-01T01:53:44;15.93;;;6.88;;
7605;SDS011;3844;53.360;9.738;2023-03-01T01:55:49;16.65;;;6.57;;
7605;SDS011;3844;53.360;9.738;2023-03-01T01:57:58;12.90;;;6.18;;
7605;SDS011;3844;53.360;9.738;2023-03-01T02:00:07;17.63;;;6.97;;
7605;SDS011;3844;53.360;9.738;2023-03-01T02:02:13;16.52;;;6.20;;
7605;SDS011;3844;53.360;9.738;2023-03-01T02:04:14;15.20;;;6.30;;
7605;SDS011;3844;53.360;9.738;2023-03-01T02:06:18;13.23;;;5.97;;
7605;SDS011;3844;53.360;9.738;2023-03-01T02:08:50;14.32;;;6.28;;
7605;SDS011;3844;53.360;9.738;2023-03-01T02:10:53;12.27;;;5.55;;
7605;SDS011;3844;53.360;9.738;2023-03-01T02:12:56;12.82;;;5.55;;
7605;SDS011;3844;53.360;9.738;2023-03-01T02:14:57;14.43;;;6.38;;
7605;SDS011;3844;53.360;9.738;2023-03-01T02:16:58;14.43;;;5.70;;
7605;SDS011;3844;53.360;9.738;2023-03-01T02:18:59;14.43;;;6.20;;
7605;SDS011;3844;53.360;9.738;2023-03-01T02:23:16;13.73;;;6.35;;
7605;SDS011;3844;53.360;9.738;2023-03-01T02:25:25;11.90;;;5.75;;
7605;SDS011;3844;53.360;9.738;2023-03-01T02:29:50;13.00;;;5.68;;
7605;SDS011;3844;53.360;9.738;2023-03-01T02:31:52;12.10;;;5.80;;
7605;SDS011;3844;53.360;9.738;2023-03-01T02:33:56;12.63;;;6.00;;
7605;SDS011;3844;53.360;9.738;2023-03-01T02:36:00;14.55;;;6.47;;
7605;SDS011;3844;53.360;9.738;2023-03-01T02:38:06;12.23;;;5.50;;
7605;SDS011;3844;53.360;9.738;2023-03-01T02:40:10;13.10;;;6.10;;
7605;SDS011;3844;53.360;9.738;2023-03-01T02:42:14;12.60;;;5.60;;
7605;SDS011;3844;53.360;9.738;2023-03-01T02:44:20;13.15;;;5.30;;
7605;SDS011;3844;53.360;9.738;2023-03-01T02:46:22;12.45;;;5.70;;
7605;SDS011;3844;53.360;9.738;2023-03-01T02:48:24;13.50;;;5.28;;
7605;SDS011;3844;53.360;9.738;2023-03-01T02:54:31;13.30;;;5.25;;
7605;SDS011;3844;53.360;9.738;2023-03-01T02:56:38;12.77;;;5.57;;
7605;SDS011;3844;53.360;9.738;2023-03-01T02:58:41;14.95;;;5.82;;
7605;SDS011;3844;53.360;9.738;2023-03-01T03:00:45;10.93;;;4.90;;
7605;SDS011;3844;53.360;9.738;2023-03-01T03:02:50;13.48;;;5.75;;
7605;SDS011;3844;53.360;9.738;2023-03-01T03:04:52;11.15;;;5.07;;
7605;SDS011;3844;53.360;9.738;2023-03-01T03:06:53;11.88;;;5.28;;
7605;SDS011;3844;53.360;9.738;2023-03-01T03:08:53;10.50;;;5.10;;
7605;SDS011;3844;53.360;9.738;2023-03-01T03:10:54;12.20;;;5.43;;
7605;SDS011;3844;53.360;9.738;2023-03-01T03:12:57;13.40;;;5.72;;
7605;SDS011;3844;53.360;9.738;2023-03-01T03:14:59;14.60;;;5.70;;
7605;SDS011;3844;53.360;9.738;2023-03-01T03:17:00;12.05;;;5.47;;
7605;SDS011;3844;53.360;9.738;2023-03-01T03:19:00;12.15;;;5.65;;
7605;SDS011;3844;53.360;9.738;2023-03-01T03:21:07;13.57;;;5.68;;
7605;SDS011;3844;53.360;9.738;2023-03-01T03:23:11;10.65;;;5.15;;
7605;SDS011;3844;53.360;9.738;2023-03-01T03:25:12;12.75;;;5.43;;
7605;SDS011;3844;53.360;9.738;2023-03-01T03:27:13;12.32;;;5.43;;
7605;SDS011;3844;53.360;9.738;2023-03-01T03:29:14;11.68;;;5.03;;
7605;SDS011;3844;53.360;9.738;2023-03-01T03:31:15;11.98;;;5.40;;
7605;SDS011;3844;53.360;9.738;2023-03-01T03:33:16;11.48;;;4.75;;
7605;SDS011;3844;53.360;9.738;2023-03-01T03:35:18;12.88;;;5.75;;
7605;SDS011;3844;53.360;9.738;2023-03-01T03:37:24;10.10;;;4.93;;
7605;SDS011;3844;53.360;9.738;2023-03-01T03:39:43;13.10;;;5.70;;
7605;SDS011;3844;53.360;9.738;2023-03-01T03:41:44;12.63;;;5.57;;
7605;SDS011;3844;53.360;9.738;2023-03-01T03:43:46;13.35;;;5.82;;
7605;SDS011;3844;53.360;9.738;2023-03-01T03:45:47;12.13;;;5.05;;
7605;SDS011;3844;53.360;9.738;2023-03-01T03:47:49;10.57;;;5.10;;
7605;SDS011;3844;53.360;9.738;2023-03-01T03:49:50;12.13;;;5.15;;
7605;SDS011;3844;53.360;9.738;2023-03-01T03:51:51;11.13;;;5.10;;
7605;SDS011;3844;53.360;9.738;2023-03-01T03:53:51;11.00;;;5.25;;
7605;SDS011;3844;53.360;9.738;2023-03-01T03:55:52;12.18;;;5.32;;
7605;SDS011;3844;53.360;9.738;2023-03-01T03:57:54;10.77;;;5.22;;
7605;SDS011;3844;53.360;9.738;2023-03-01T03:59:58;11.15;;;4.85;;
7605;SDS011;3844;53.360;9.738;2023-03-01T04:01:58;9.73;;;4.82;;
7605;SDS011;3844;53.360;9.738;2023-03-01T04:03:59;11.63;;;5.40;;
7605;SDS011;3844;53.360;9.738;2023-03-01T04:06:04;10.90;;;5.05;;
7605;SDS011;3844;53.360;9.738;2023-03-01T04:08:05;13.88;;;5.10;;
7605;SDS011;3844;53.360;9.738;2023-03-01T04:10:08;11.27;;;5.22;;
7605;SDS011;3844;53.360;9.738;2023-03-01T04:14:11;7.97;;;4.15;;
7605;SDS011;3844;53.360;9.738;2023-03-01T04:16:14;12.40;;;4.80;;
7605;SDS011;3844;53.360;9.738;2023-03-01T04:18:16;11.75;;;4.45;;
7605;SDS011;3844;53.360;9.738;2023-03-01T04:20:20;9.65;;;4.43;;
7605;SDS011;3844;53.360;9.738;2023-03-01T04:22:24;8.63;;;3.90;;
7605;SDS011;3844;53.360;9.738;2023-03-01T04:24:29;8.95;;;4.03;;
7605;SDS011;3844;53.360;9.738;2023-03-01T04:26:30;8.65;;;4.22;;
7605;SDS011;3844;53.360;9.738;2023-03-01T04:28:38;9.70;;;4.30;;
7605;SDS011;3844;53.360;9.738;2023-03-01T04:30:40;10.77;;;4.38;;
7605;SDS011;3844;53.360;9.738;2023-03-01T04:32:41;9.35;;;4.28;;
7605;SDS011;3844;53.360;9.738;2023-03-01T04:34:42;9.68;;;4.40;;
7605;SDS011;3844;53.360;9.738;2023-03-01T04:36:42;10.48;;;4.43;;
7605;SDS011;3844;53.360;9.738;2023-03-01T04:38:43;11.20;;;4.60;;
7605;SDS011;3844;53.360;9.738;2023-03-01T04:40:47;8.70;;;4.10;;
7605;SDS011;3844;53.360;9.738;2023-03-01T04:42:48;9.30;;;4.40;;
7605;SDS011;3844;53.360;9.738;2023-03-01T04:44:49;9.77;;;4.40;;
7605;SDS011;3844;53.360;9.738;2023-03-01T04:46:53;8.35;;;3.90;;
7605;SDS011;3844;53.360;9.738;2023-03-01T04:48:54;8.75;;;4.15;;
7605;SDS011;3844;53.360;9.738;2023-03-01T04:50:54;8.23;;;4.25;;
7605;SDS011;3844;53.360;9.738;2023-03-01T04:52:55;9.00;;;4.28;;
7605;SDS011;3844;53.360;9.738;2023-03-01T04:54:59;10.45;;;4.20;;
7605;SDS011;3844;53.360;9.738;2023-03-01T04:57:00;9.68;;;4.40;;
7605;SDS011;3844;53.360;9.738;2023-03-01T04:59:01;9.32;;;4.10;;
7605;SDS011;3844;53.360;9.738;2023-03-01T05:01:09;9.50;;;4.25;;
7605;SDS011;3844;53.360;9.738;2023-03-01T05:03:15;9.23;;;4.32;;
7605;SDS011;3844;53.360;9.738;2023-03-01T05:05:19;9.02;;;3.97;;
7605;SDS011;3844;53.360;9.738;2023-03-01T05:07:25;9.85;;;4.22;;
7605;SDS011;3844;53.360;9.738;2023-03-01T05:09:26;9.15;;;4.38;;
7605;SDS011;3844;53.360;9.738;2023-03-01T05:11:26;9.13;;;4.18;;
7605;SDS011;3844;53.360;9.738;2023-03-01T05:13:31;8.98;;;3.70;;
7605;SDS011;3844;53.360;9.738;2023-03-01T05:15:32;9.65;;;3.97;;
7605;SDS011;3844;53.360;9.738;2023-03-01T05:17:33;7.90;;;3.78;;
7605;SDS011;3844;53.360;9.738;2023-03-01T05:19:34;7.93;;;3.75;;
7605;SDS011;3844;53.360;9.738;2023-03-01T05:21:35;7.90;;;3.55;;
7605;SDS011;3844;53.360;9.738;2023-03-01T05:23:55;9.32;;;4.15;;
7605;SDS011;3844;53.360;9.738;2023-03-01T05:26:00;8.32;;;3.58;;
7605;SDS011;3844;53.360;9.738;2023-03-01T05:28:03;9.80;;;4.00;;
7605;SDS011;3844;53.360;9.738;2023-03-01T05:30:04;8.65;;;3.78;;
7605;SDS011;3844;53.360;9.738;2023-03-01T05:32:13;9.82;;;4.22;;
7605;SDS011;3844;53.360;9.738;2023-03-01T05:34:15;8.90;;;4.00;;
7605;SDS011;3844;53.360;9.738;2023-03-01T05:36:16;10.27;;;4.57;;
7605;SDS011;3844;53.360;9.738;2023-03-01T05:38:18;9.40;;;4.40;;
7605;SDS011;3844;53.360;9.738;2023-03-01T05:40:20;8.02;;;3.80;;
7605;SDS011;3844;53.360;9.738;2023-03-01T05:42:24;7.68;;;3.80;;
7605;SDS011;3844;53.360;9.738;2023-03-01T05:44:24;8.68;;;4.10;;
7605;SDS011;3844;53.360;9.738;2023-03-01T05:46:26;11.13;;;4.35;;
7605;SDS011;3844;53.360;9.738;2023-03-01T05:48:26;9.75;;;4.40;;
7605;SDS011;3844;53.360;9.738;2023-03-01T05:50:28;10.80;;;4.18;;
7605;SDS011;3844;53.360;9.738;2023-03-01T05:52:31;9.90;;;4.28;;
7605;SDS011;3844;53.360;9.738;2023-03-01T05:56:36;10.75;;;4.10;;
7605;SDS011;3844;53.360;9.738;2023-03-01T05:58:37;9.55;;;4.25;;
7605;SDS011;3844;53.360;9.738;2023-03-01T06:00:38;9.95;;;4.30;;
7605;SDS011;3844;53.360;9.738;2023-03-01T06:02:39;11.05;;;4.70;;
7605;SDS011;3844;53.360;9.738;2023-03-01T06:04:40;8.98;;;4.10;;
7605;SDS011;3844;53.360;9.738;2023-03-01T06:06:41;8.70;;;4.00;;
7605;SDS011;3844;53.360;9.738;2023-03-01T06:08:42;11.20;;;4.28;;
7605;SDS011;3844;53.360;9.738;2023-03-01T06:10:43;8.57;;;3.83;;
7605;SDS011;3844;53.360;9.738;2023-03-01T06:12:47;8.02;;;3.92;;
7605;SDS011;3844;53.360;9.738;2023-03-01T06:14:48;9.57;;;4.20;;
7605;SDS011;3844;53.360;9.738;2023-03-01T06:16:49;8.25;;;3.95;;
7605;SDS011;3844;53.360;9.738;2023-03-01T06:18:50;9.55;;;4.15;;
7605;SDS011;3844;53.360;9.738;2023-03-01T06:20:54;8.95;;;4.00;;
7605;SDS011;3844;53.360;9.738;2023-03-01T06:22:55;8.70;;;3.78;;
7605;SDS011;3844;53.360;9.738;2023-03-01T06:24:56;8.45;;;3.55;;
7605;SDS011;3844;53.360;9.738;2023-03-01T06:26:57;8.95;;;4.13;;
7605;SDS011;3844;53.360;9.738;2023-03-01T06:28:58;7.80;;;4.00;;
7605;SDS011;3844;53.360;9.738;2023-03-01T06:30:58;9.55;;;4.07;;
7605;SDS011;3844;53.360;9.738;2023-03-01T06:32:59;9.55;;;3.72;;
7605;SDS011;3844;53.360;9.738;2023-03-01T06:35:03;8.18;;;3.65;;
7605;SDS011;3844;53.360;9.738;2023-03-01T06:37:06;9.43;;;3.92;;
7605;SDS011;3844;53.360;9.738;2023-03-01T06:39:07;9.00;;;3.92;;
7605;SDS011;3844;53.360;9.738;2023-03-01T06:41:08;9.73;;;4.30;;
7605;SDS011;3844;53.360;9.738;2023-03-01T06:43:08;8.15;;;3.80;;
7605;SDS011;3844;53.360;9.738;2023-03-01T06:45:10;8.25;;;3.90;;
7605;SDS011;3844;53.360;9.738;2023-03-01T06:47:11;8.57;;;3.70;;
7605;SDS011;3844;53.360;9.738;2023-03-01T06:49:12;8.90;;;3.80;;
7605;SDS011;3844;53.360;9.738;2023-03-01T06:51:13;7.03;;;3.55;;
7605;SDS011;3844;53.360;9.738;2023-03-01T06:53:13;7.53;;;3.55;;
7605;SDS011;3844;53.360;9.738;2023-03-01T06:55:14;9.52;;;3.63;;
7605;SDS011;3844;53.360;9.738;2023-03-01T06:57:15;8.48;;;3.78;;
7605;SDS011;3844;53.360;9.738;2023-03-01T06:59:16;9.07;;;4.05;;
7605;SDS011;3844;53.360;9.738;2023-03-01T07:01:17;7.65;;;3.50;;
7605;SDS011;3844;53.360;9.738;2023-03-01T07:03:18;7.72;;;3.65;;
7605;SDS011;3844;53.360;9.738;2023-03-01T07:05:19;8.00;;;3.63;;
7605;SDS011;3844;53.360;9.738;2023-03-01T07:07:20;7.78;;;3.80;;
7605;SDS011;3844;53.360;9.738;2023-03-01T07:09:21;8.23;;;3.70;;
7605;SDS011;3844;53.360;9.738;2023-03-01T07:11:23;7.25;;;3.20;;
7605;SDS011;3844;53.360;9.738;2023-03-01T07:13:24;7.47;;;3.70;;
7605;SDS011;3844;53.360;9.738;2023-03-01T07:15:25;7.65;;;3.83;;
7605;SDS011;3844;53.360;9.738;2023-03-01T07:17:27;8.02;;;3.78;;
7605;SDS011;3844;53.360;9.738;2023-03-01T07:19:28;7.85;;;3.70;;
7605;SDS011;3844;53.360;9.738;2023-03-01T07:21:28;7.95;;;3.70;;
7605;SDS011;3844;53.360;9.738;2023-03-01T07:23:29;8.68;;;3.67;;
7605;SDS011;3844;53.360;9.738;2023-03-01T07:25:30;8.63;;;3.78;;
7605;SDS011;3844;53.360;9.738;2023-03-01T07:27:32;8.05;;;3.60;;
7605;SDS011;3844;53.360;9.738;2023-03-01T07:29:32;8.35;;;3.60;;
7605;SDS011;3844;53.360;9.738;2023-03-01T07:31:33;8.00;;;3.78;;
7605;SDS011;3844;53.360;9.738;2023-03-01T07:33:34;7.90;;;3.58;;
7605;SDS011;3844;53.360;9.738;2023-03-01T07:35:35;6.97;;;3.38;;
7605;SDS011;3844;53.360;9.738;2023-03-01T07:37:36;9.45;;;4.03;;
7605;SDS011;3844;53.360;9.738;2023-03-01T07:39:37;8.73;;;3.78;;
7605;SDS011;3844;53.360;9.738;2023-03-01T07:41:38;8.95;;;3.55;;
7605;SDS011;3844;53.360;9.738;2023-03-01T07:43:38;8.85;;;4.07;;
7605;SDS011;3844;53.360;9.738;2023-03-01T07:45:39;7.25;;;3.65;;
7605;SDS011;3844;53.360;9.738;2023-03-01T07:47:40;10.38;;;4.20;;
7605;SDS011;3844;53.360;9.738;2023-03-01T07:49:44;10.25;;;5.10;;
7605;SDS011;3844;53.360;9.738;2023-03-01T07:51:44;11.80;;;4.80;;
7605;SDS011;3844;53.360;9.738;2023-03-01T07:53:46;9.88;;;3.95;;
7605;SDS011;3844;53.360;9.738;2023-03-01T07:55:48;8.15;;;4.28;;
7605;SDS011;3844;53.360;9.738;2023-03-01T07:57:49;9.00;;;4.20;;
7605;SDS011;3844;53.360;9.738;2023-03-01T07:59:50;10.02;;;4.10;;
7605;SDS011;3844;53.360;9.738;2023-03-01T08:01:50;9.30;;;4.13;;
7605;SDS011;3844;53.360;9.738;2023-03-01T08:03:51;10.30;;;4.32;;
7605;SDS011;3844;53.360;9.738;2023-03-01T08:05:52;9.13;;;4.10;;
7605;SDS011;3844;53.360;9.738;2023-03-01T08:07:53;8.07;;;3.78;;
7605;SDS011;3844;53.360;9.738;2023-03-01T08:09:54;7.72;;;3.80;;
7605;SDS011;3844;53.360;9.738;2023-03-01T08:11:56;8.77;;;3.95;;
7605;SDS011;3844;53.360;9.738;2023-03-01T08:13:59;7.03;;;3.60;;
7605;SDS011;3844;53.360;9.738;2023-03-01T08:16:01;8.80;;;4.00;;
7605;SDS011;3844;53.360;9.738;2023-03-01T08:18:03;7.60;;;3.57;;
7605;SDS011;3844;53.360;9.738;2023-03-01T08:20:06;7.97;;;3.80;;
7605;SDS011;3844;53.360;9.738;2023-03-01T08:22:07;9.10;;;4.10;;
7605;SDS011;3844;53.360;9.738;2023-03-01T08:24:08;8.00;;;3.72;;
7605;SDS011;3844;53.360;9.738;2023-03-01T08:26:11;7.47;;;3.42;;
7605;SDS011;3844;53.360;9.738;2023-03-01T08:28:13;6.07;;;3.33;;
7605;SDS011;3844;53.360;9.738;2023-03-01T08:30:14;7.45;;;3.50;;
7605;SDS011;3844;53.360;9.738;2023-03-01T08:32:15;7.88;;;3.72;;
7605;SDS011;3844;53.360;9.738;2023-03-01T08:34:16;6.25;;;3.13;;
7605;SDS011;3844;53.360;9.738;2023-03-01T08:36:18;6.93;;;3.65;;
7605;SDS011;3844;53.360;9.738;2023-03-01T08:38:19;6.90;;;3.30;;
7605;SDS011;3844;53.360;9.738;2023-03-01T08:40:20;7.85;;;3.92;;
7605;SDS011;3844;53.360;9.738;2023-03-01T08:42:20;8.05;;;3.95;;
7605;SDS011;3844;53.360;9.738;2023-03-01T08:44:21;8.80;;;3.75;;
7605;SDS011;3844;53.360;9.738;2023-03-01T08:46:22;8.05;;;4.20;;
7605;SDS011;3844;53.360;9.738;2023-03-01T08:48:22;8.75;;;4.03;;
7605;SDS011;3844;53.360;9.738;2023-03-01T08:50:23;7.78;;;3.92;;
7605;SDS011;3844;53.360;9.738;2023-03-01T08:52:24;7.70;;;3.70;;
7605;SDS011;3844;53.360;9.738;2023-03-01T08:54:25;9.38;;;3.78;;
7605;SDS011;3844;53.360;9.738;2023-03-01T08:56:26;7.55;;;3.80;;
7605;SDS011;3844;53.360;9.738;2023-03-01T08:58:27;8.52;;;3.55;;
7605;SDS011;3844;53.360;9.738;2023-03-01T09:00:28;6.47;;;3.28;;
7605;SDS011;3844;53.360;9.738;2023-03-01T09:02:28;9.98;;;3.80;;
7605;SDS011;3844;53.360;9.738;2023-03-01T09:04:29;10.13;;;3.67;;
7605;SDS011;3844;53.360;9.738;2023-03-01T09:06:31;8.35;;;3.65;;
7605;SDS011;3844;53.360;9.738;2023-03-01T09:08:36;9.48;;;3.70;;
7605;SDS011;3844;53.360;9.738;2023-03-01T09:10:38;7.82;;;3.92;;
7605;SDS011;3844;53.360;9.738;2023-03-01T09:12:39;9.50;;;3.78;;
7605;SDS011;3844;53.360;9.738;2023-03-01T09:14:40;8.00;;;3.90;;
7605;SDS011;3844;53.360;9.738;2023-03-01T09:16:42;7.65;;;3.80;;
7605;SDS011;3844;53.360;9.738;2023-03-01T09:18:43;8.27;;;3.90;;
7605;SDS011;3844;53.360;9.738;2023-03-01T09:20:44;8.77;;;3.90;;
7605;SDS011;3844;53.360;9.738;2023-03-01T09:22:45;8.25;;;3.65;;
7605;SDS011;3844;53.360;9.738;2023-03-01T09:24:46;6.80;;;3.67;;
7605;SDS011;3844;53.360;9.738;2023-03-01T09:26:47;10.05;;;3.83;;
7605;SDS011;3844;53.360;9.738;2023-03-01T09:28:49;8.68;;;4.05;;
7605;SDS011;3844;53.360;9.738;2023-03-01T09:30:52;9.75;;;3.83;;
7605;SDS011;3844;53.360;9.738;2023-03-01T09:32:52;8.52;;;4.22;;
7605;SDS011;3844;53.360;9.738;2023-03-01T09:34:53;7.63;;;3.95;;
7605;SDS011;3844;53.360;9.738;2023-03-01T09:37:06;7.18;;;3.72;;
7605;SDS011;3844;53.360;9.738;2023-03-01T09:39:07;7.60;;;3.85;;
7605;SDS011;3844;53.360;9.738;2023-03-01T09:45:34;9.07;;;4.40;;
7605;SDS011;3844;53.360;9.738;2023-03-01T09:47:39;9.15;;;4.57;;
7605;SDS011;3844;53.360;9.738;2023-03-01T09:49:41;8.40;;;4.45;;
7605;SDS011;3844;53.360;9.738;2023-03-01T09:52:12;12.50;;;5.57;;
7605;SDS011;3844;53.360;9.738;2023-03-01T09:54:19;11.32;;;5.15;;
7605;SDS011;3844;53.360;9.738;2023-03-01T09:56:20;10.40;;;5.38;;
7605;SDS011;3844;53.360;9.738;2023-03-01T09:58:46;12.50;;;5.10;;
7605;SDS011;3844;53.360;9.738;2023-03-01T10:01:48;10.43;;;5.20;;
7605;SDS011;3844;53.360;9.738;2023-03-01T10:06:14;9.52;;;5.10;;
7605;SDS011;3844;53.360;9.738;2023-03-01T10:08:33;11.10;;;5.30;;
7605;SDS011;3844;53.360;9.738;2023-03-01T10:10:43;11.60;;;5.47;;
7605;SDS011;3844;53.360;9.738;2023-03-01T10:12:46;10.15;;;4.95;;
7605;SDS011;3844;53.360;9.738;2023-03-01T10:19:42;9.80;;;5.22;;
7605;SDS011;3844;53.360;9.738;2023-03-01T10:21:44;10.73;;;5.85;;
7605;SDS011;3844;53.360;9.738;2023-03-01T10:23:46;11.23;;;6.03;;
7605;SDS011;3844;53.360;9.738;2023-03-01T10:28:16;7.20;;;3.80;;
7605;SDS011;3844;53.360;9.738;2023-03-01T10:30:35;8.95;;;4.93;;
7605;SDS011;3844;53.360;9.738;2023-03-01T10:32:39;8.57;;;5.10;;
7605;SDS011;3844;53.360;9.738;2023-03-01T10:34:40;10.52;;;4.90;;
7605;SDS011;3844;53.360;9.738;2023-03-01T10:36:42;9.07;;;5.13;;
7605;SDS011;3844;53.360;9.738;2023-03-01T10:38:48;9.30;;;5.30;;
7605;SDS011;3844;53.360;9.738;2023-03-01T10:40:57;9.35;;;4.78;;
7605;SDS011;3844;53.360;9.738;2023-03-01T10:43:06;8.32;;;4.30;;
7605;SDS011;3844;53.360;9.738;2023-03-01T10:47:30;9.63;;;4.70;;
7605;SDS011;3844;53.360;9.738;2023-03-01T10:49:31;8.13;;;4.63;;
7605;SDS011;3844;53.360;9.738;2023-03-01T10:51:32;8.45;;;4.78;;
7605;SDS011;3844;53.360;9.738;2023-03-01T10:53:34;8.35;;;4.60;;
7605;SDS011;3844;53.360;9.738;2023-03-01T10:55:38;8.30;;;4.82;;
7605;SDS011;3844;53.360;9.738;2023-03-01T10:57:39;11.45;;;5.93;;
7605;SDS011;3844;53.360;9.738;2023-03-01T10:59:41;10.35;;;6.25;;
7605;SDS011;3844;53.360;9.738;2023-03-01T11:01:42;11.00;;;6.32;;
7605;SDS011;3844;53.360;9.738;2023-03-01T11:03:42;10.18;;;6.05;;
7605;SDS011;3844;53.360;9.738;2023-03-01T11:05:54;10.60;;;5.93;;
7605;SDS011;3844;53.360;9.738;2023-03-01T11:07:59;12.88;;;6.40;;
7605;SDS011;3844;53.360;9.738;2023-03-01T11:10:06;10.18;;;6.43;;
7605;SDS011;3844;53.360;9.738;2023-03-01T11:12:15;11.13;;;5.80;;
7605;SDS011;3844;53.360;9.738;2023-03-01T11:14:27;10.55;;;5.78;;
7605;SDS011;3844;53.360;9.738;2023-03-01T11:16:35;10.93;;;6.25;;
7605;SDS011;3844;53.360;9.738;2023-03-01T11:18:37;9.88;;;6.40;;
7605;SDS011;3844;53.360;9.738;2023-03-01T11:20:39;13.65;;;7.43;;
7605;SDS011;3844;53.360;9.738;2023-03-01T11:22:44;11.88;;;8.00;;
7605;SDS011;3844;53.360;9.738;2023-03-01T11:24:53;14.38;;;7.90;;
7605;SDS011;3844;53.360;9.738;2023-03-01T11:28:56;14.10;;;8.50;;
7605;SDS011;3844;53.360;9.738;2023-03-01T11:31:08;13.52;;;8.48;;
7605;SDS011;3844;53.360;9.738;2023-03-01T11:33:30;14.30;;;9.32;;
7605;SDS011;3844;53.360;9.738;2023-03-01T11:36:00;14.80;;;9.23;;
7605;SDS011;3844;53.360;9.738;2023-03-01T11:45:19;10.73;;;6.88;;
7605;SDS011;3844;53.360;9.738;2023-03-01T11:54:24;9.88;;;4.97;;
7605;SDS011;3844;53.360;9.738;2023-03-01T11:56:41;8.93;;;4.97;;
7605;SDS011;3844;53.360;9.738;2023-03-01T11:59:32;9.50;;;5.32;;
7605;SDS011;3844;53.360;9.738;2023-03-01T12:06:10;11.60;;;6.72;;
7605;SDS011;3844;53.360;9.738;2023-03-01T12:12:31;8.25;;;4.93;;
7605;SDS011;3844;53.360;9.738;2023-03-01T12:14:59;9.38;;;5.05;;
7605;SDS011;3844;53.360;9.738;2023-03-01T12:24:21;7.97;;;4.68;;
7605;SDS011;3844;53.360;9.738;2023-03-01T12:48:08;11.48;;;6.30;;
7605;SDS011;3844;53.360;9.738;2023-03-01T12:50:26;9.95;;;5.85;;
7605;SDS011;3844;53.360;9.738;2023-03-01T12:54:47;9.30;;;5.57;;
7605;SDS011;3844;53.360;9.738;2023-03-01T12:56:50;10.35;;;6.35;;
7605;SDS011;3844;53.360;9.738;2023-03-01T13:03:42;12.68;;;7.13;;
7605;SDS011;3844;53.360;9.738;2023-03-01T13:08:27;12.02;;;6.90;;
7605;SDS011;3844;53.360;9.738;2023-03-01T13:14:49;13.32;;;7.25;;
7605;SDS011;3844;53.360;9.738;2023-03-01T13:16:54;11.10;;;7.30;;
7605;SDS011;3844;53.360;9.738;2023-03-01T13:21:30;13.07;;;7.10;;
7605;SDS011;3844;53.360;9.738;2023-03-01T13:23:32;11.52;;;7.40;;
7605;SDS011;3844;53.360;9.738;2023-03-01T13:32:36;13.65;;;6.68;;
7605;SDS011;3844;53.360;9.738;2023-03-01T13:34:41;12.93;;;7.50;;
7605;SDS011;3844;53.360;9.738;2023-03-01T13:36:47;12.10;;;7.15;;
7605;SDS011;3844;53.360;9.738;2023-03-01T13:42:57;13.50;;;6.88;;
7605;SDS011;3844;53.360;9.738;2023-03-01T13:45:44;10.75;;;6.22;;
7605;SDS011;3844;53.360;9.738;2023-03-01T13:47:47;11.15;;;6.03;;
7605;SDS011;3844;53.360;9.738;2023-03-01T13:49:57;11.95;;;6.35;;
7605;SDS011;3844;53.360;9.738;2023-03-01T13:51:59;11.25;;;6.60;;
7605;SDS011;3844;53.360;9.738;2023-03-01T13:53:59;12.45;;;6.47;;
7605;SDS011;3844;53.360;9.738;2023-03-01T13:56:02;14.02;;;7.03;;
7605;SDS011;3844;53.360;9.738;2023-03-01T14:00:30;11.80;;;6.60;;
7605;SDS011;3844;53.360;9.738;2023-03-01T14:02:31;12.35;;;6.70;;
7605;SDS011;3844;53.360;9.738;2023-03-01T14:04:34;14.40;;;7.10;;
7605;SDS011;3844;53.360;9.738;2023-03-01T14:06:35;13.52;;;6.93;;
7605;SDS011;3844;53.360;9.738;2023-03-01T14:08:36;13.15;;;6.88;;
7605;SDS011;3844;53.360;9.738;2023-03-01T14:11:24;13.95;;;7.18;;
7605;SDS011;3844;53.360;9.738;2023-03-01T14:13:23;14.20;;;6.97;;
7605;SDS011;3844;53.360;9.738;2023-03-01T14:15:38;12.98;;;6.85;;
7605;SDS011;3844;53.360;9.738;2023-03-01T14:19:57;12.02;;;6.47;;
7605;SDS011;3844;53.360;9.738;2023-03-01T14:24:21;14.00;;;7.80;;
7605;SDS011;3844;53.360;9.738;2023-03-01T14:26:23;16.90;;;8.60;;
7605;SDS011;3844;53.360;9.738;2023-03-01T14:28:24;16.85;;;8.52;;
7605;SDS011;3844;53.360;9.738;2023-03-01T14:30:37;16.63;;;8.43;;
7605;SDS011;3844;53.360;9.738;2023-03-01T14:32:41;17.85;;;8.80;;
7605;SDS011;3844;53.360;9.738;2023-03-01T14:34:43;17.50;;;9.15;;
7605;SDS011;3844;53.360;9.738;2023-03-01T14:36:46;18.83;;;8.95;;
7605;SDS011;3844;53.360;9.738;2023-03-01T14:38:47;17.55;;;9.25;;
7605;SDS011;3844;53.360;9.738;2023-03-01T14:40:56;17.08;;;9.35;;
7605;SDS011;3844;53.360;9.738;2023-03-01T14:42:59;19.65;;;9.10;;